Time;durP1;ratioP1;P1;durP2;ratioP2;P2;SDS_P1;SDS_P2;PMS_P1;PMS_P2;Temp;Humidity;BMP_temperature;BMP_pressure;BME280_temperature;BME280_humidity;BME280_pressure;Samples;Min_cycle;Max_cycle;Signal;HPM_P1;HPM_P2
2023/03/21 00:00:40;;;;;;;1.77;1.52;;;16.60;60.10;;;;;;6245650;23;19993;-70
2023/03/21 00:03:06;;;;;;;1.92;1.20;;;16.70;60.10;;;;;;6255516;23;20015;-71
2023/03/21 00:05:31;;;;;;;2.47;1.48;;;16.60;59.90;;;;;;6255633;23;20308;-71
2023/03/21 00:07:57;;;;;;;1.95;1.20;;;16.60;59.90;;;;;;6245833;23;20054;-71
2023/03/21 00:10:23;;;;;;;1.85;1.40;;;16.60;60.00;;;;;;6255606;23;19996;-71
2023/03/21 00:12:57;;;;;;;1.83;1.20;;;16.70;60.00;;;;;;6255733;23;20079;-72
2023/03/21 00:15:24;;;;;;;1.85;0.98;;;16.70;60.00;;;;;;6245349;23;19996;-72
2023/03/21 00:17:52;;;;;;;1.15;0.80;;;16.70;60.00;;;;;;6255559;23;20131;-72
2023/03/21 00:20:19;;;;;;;1.50;1.00;;;16.70;60.10;;;;;;6255598;23;20439;-72
2023/03/21 00:22:45;;;;;;;1.48;0.98;;;16.70;60.00;;;;;;6255547;23;20091;-72
2023/03/21 00:25:10;;;;;;;1.52;1.10;;;16.70;59.90;;;;;;6255313;23;20039;-72
2023/03/21 00:27:36;;;;;;;1.48;0.80;;;16.70;59.90;;;;;;6255696;23;19996;-72
2023/03/21 00:30:04;;;;;;;1.17;0.80;;;16.70;59.90;;;;;;6255517;23;19997;-72
2023/03/21 00:32:29;;;;;;;2.47;1.38;;;16.70;60.00;;;;;;6255405;23;20079;-72
2023/03/21 00:34:55;;;;;;;2.30;1.23;;;16.70;59.90;;;;;;6255262;23;20031;-72
2023/03/21 00:37:20;;;;;;;1.98;0.90;;;16.70;60.00;;;;;;6255428;23;19996;-76
2023/03/21 00:39:48;;;;;;;2.00;1.45;;;16.70;60.00;;;;;;6255896;23;20000;-76
2023/03/21 00:42:15;;;;;;;3.10;1.30;;;16.70;59.90;;;;;;6255700;23;20065;-76
2023/03/21 00:44:41;;;;;;;3.15;1.63;;;16.70;59.90;;;;;;6255670;23;20047;-76
2023/03/21 00:47:08;;;;;;;1.35;1.13;;;16.70;59.90;;;;;;6245857;23;19992;-76
2023/03/21 00:49:36;;;;;;;1.33;1.00;;;16.70;59.90;;;;;;6255792;23;19996;-76
2023/03/21 00:52:05;;;;;;;1.65;1.52;;;16.70;59.90;;;;;;6255754;23;20355;-76
2023/03/21 00:54:32;;;;;;;1.15;1.05;;;16.70;59.90;;;;;;6245678;23;20038;-76
2023/03/21 00:56:58;;;;;;;1.88;1.20;;;16.70;59.80;;;;;;6255827;23;20022;-76
2023/03/21 00:59:23;;;;;;;2.38;1.23;;;16.70;60.50;;;;;;6245802;23;20063;-76
2023/03/21 01:01:52;;;;;;;3.70;1.60;;;16.70;59.90;;;;;;6245349;23;20066;-76
2023/03/21 01:04:20;;;;;;;2.13;0.90;;;16.70;59.90;;;;;;6245648;23;20071;-76
2023/03/21 01:06:46;;;;;;;2.20;1.02;;;16.70;59.80;;;;;;6245699;23;20010;-76
2023/03/21 01:09:19;;;;;;;2.85;1.20;;;16.80;60.00;;;;;;6245716;23;19999;-76
2023/03/21 01:11:45;;;;;;;1.83;1.50;;;16.70;59.80;;;;;;6255563;23;20003;-76
2023/03/21 01:14:12;;;;;;;3.47;1.20;;;16.70;59.80;;;;;;6255517;23;20004;-72
2023/03/21 01:16:38;;;;;;;1.70;1.00;;;16.70;59.90;;;;;;6255164;23;20071;-72
2023/03/21 01:19:07;;;;;;;3.05;0.90;;;16.80;59.80;;;;;;6255039;23;20443;-71
2023/03/21 01:21:33;;;;;;;2.67;1.40;;;16.70;59.80;;;;;;6255050;23;20032;-72
2023/03/21 01:24:00;;;;;;;2.28;1.23;;;16.70;59.90;;;;;;6245045;23;20039;-71
2023/03/21 01:26:26;;;;;;;2.05;1.08;;;16.70;59.80;;;;;;6254966;23;20000;-71
2023/03/21 01:28:52;;;;;;;3.05;1.20;;;16.70;59.80;;;;;;6254865;23;20054;-71
2023/03/21 01:31:17;;;;;;;2.65;1.23;;;16.70;59.80;;;;;;6254909;23;20003;-71
2023/03/21 01:33:44;;;;;;;3.28;1.35;;;16.70;59.80;;;;;;6255133;23;20045;-76
2023/03/21 01:36:22;;;;;;;3.58;1.33;;;16.70;59.90;;;;;;6255431;23;20045;-76
2023/03/21 01:38:48;;;;;;;3.03;1.40;;;16.70;59.80;;;;;;6255529;23;19993;-76
2023/03/21 01:41:26;;;;;;;1.95;1.05;;;16.70;59.80;;;;;;6255331;23;20000;-76
2023/03/21 01:43:51;;;;;;;1.95;1.38;;;16.70;59.80;;;;;;6255243;23;20000;-76
2023/03/21 01:46:45;;;;;;;4.43;1.70;;;16.70;59.80;;;;;;6245097;23;20023;-76
2023/03/21 01:49:24;;;;;;;2.95;0.90;;;16.70;59.80;;;;;;6255296;23;20010;-76
2023/03/21 01:51:55;;;;;;;2.35;0.98;;;16.70;59.90;;;;;;6255288;23;20004;-71
2023/03/21 01:54:27;;;;;;;2.45;1.27;;;16.70;59.90;;;;;;6254882;23;19996;-71
2023/03/21 01:56:56;;;;;;;2.40;0.95;;;16.70;59.90;;;;;;6254869;23;19996;-71
2023/03/21 01:59:37;;;;;;;2.80;1.00;;;16.70;59.90;;;;;;6254844;23;20051;-71
2023/03/21 02:02:06;;;;;;;2.10;1.23;;;16.70;59.80;;;;;;6254470;23;20032;-71
2023/03/21 02:04:34;;;;;;;3.10;1.38;;;16.70;60.00;;;;;;6254664;23;20011;-72
2023/03/21 02:07:04;;;;;;;3.13;1.33;;;16.70;59.80;;;;;;6254783;23;20082;-71
2023/03/21 02:09:34;;;;;;;3.45;1.35;;;16.70;59.90;;;;;;6254878;23;20004;-75
2023/03/21 02:12:00;;;;;;;3.30;1.13;;;16.70;59.90;;;;;;6255230;23;19996;-76
2023/03/21 02:14:27;;;;;;;2.60;1.25;;;16.70;59.80;;;;;;6245277;23;20003;-76
2023/03/21 02:16:58;;;;;;;2.05;0.80;;;16.70;59.80;;;;;;6255142;23;20071;-75
2023/03/21 02:19:40;;;;;;;1.95;1.10;;;16.70;59.80;;;;;;6255162;23;19996;-76
2023/03/21 02:22:31;;;;;;;1.75;1.00;;;16.70;59.80;;;;;;6255217;23;20324;-76
2023/03/21 02:25:20;;;;;;;1.90;1.15;;;16.70;59.80;;;;;;6245316;23;20012;-76
2023/03/21 02:28:21;;;;;;;1.07;0.67;;;16.70;59.80;;;;;;6255215;23;19996;-71
2023/03/21 02:31:13;;;;;;;2.30;0.75;;;16.70;59.70;;;;;;6254792;23;20246;-72
2023/03/21 02:34:00;;;;;;;1.98;0.90;;;16.70;59.70;;;;;;6254690;23;19996;-71
2023/03/21 02:36:44;;;;;;;2.80;0.98;;;16.70;59.80;;;;;;6254730;23;20327;-72
2023/03/21 02:39:12;;;;;;;1.65;0.98;;;16.70;59.80;;;;;;6254588;23;20004;-71
2023/03/21 02:42:02;;;;;;;2.30;0.90;;;16.70;59.80;;;;;;6254585;23;20000;-72
2023/03/21 02:44:39;;;;;;;1.77;0.95;;;16.70;59.80;;;;;;6254627;23;20450;-72
2023/03/21 02:47:16;;;;;;;1.60;0.90;;;16.70;59.80;;;;;;6244904;23;20000;-71
2023/03/21 02:50:09;;;;;;;2.40;0.98;;;16.70;59.80;;;;;;6254577;23;20070;-71
2023/03/21 02:52:36;;;;;;;2.70;1.08;;;16.70;59.60;;;;;;6254711;23;20023;-71
2023/03/21 02:55:03;;;;;;;1.40;0.70;;;16.70;59.70;;;;;;6254479;23;19996;-71
2023/03/21 02:57:30;;;;;;;3.55;0.90;;;16.70;59.80;;;;;;6254963;23;20055;-71
2023/03/21 02:59:56;;;;;;;2.35;1.10;;;16.70;59.70;;;;;;6256256;23;20030;-71
2023/03/21 03:02:26;;;;;;;2.80;0.85;;;16.70;59.80;;;;;;6255999;23;20035;-72
2023/03/21 03:04:51;;;;;;;1.80;0.73;;;16.70;59.80;;;;;;6256248;23;20014;-71
2023/03/21 03:07:24;;;;;;;2.00;0.68;;;16.70;59.70;;;;;;6256317;23;20051;-71
2023/03/21 03:10:11;;;;;;;1.75;0.80;;;16.70;59.70;;;;;;6256192;23;19996;-71
2023/03/21 03:12:45;;;;;;;2.15;0.90;;;16.70;59.70;;;;;;6256275;23;20300;-71
2023/03/21 03:15:27;;;;;;;1.60;0.80;;;16.70;59.80;;;;;;6256121;23;19996;-71
2023/03/21 03:18:23;;;;;;;0.60;0.57;;;16.70;59.70;;;;;;6256150;23;19996;-72
2023/03/21 03:21:19;;;;;;;1.70;0.85;;;16.60;59.60;;;;;;6256243;23;20431;-71
2023/03/21 03:23:52;;;;;;;1.42;0.88;;;16.70;60.30;;;;;;6246469;23;19996;-75
2023/03/21 03:26:36;;;;;;;3.03;0.90;;;16.70;59.80;;;;;;6256611;23;20004;-76
2023/03/21 03:29:13;;;;;;;1.60;0.90;;;16.70;59.80;;;;;;6256532;23;19996;-75
2023/03/21 03:31:44;;;;;;;2.72;1.02;;;16.70;59.70;;;;;;6256495;23;19999;-75
2023/03/21 03:34:16;;;;;;;1.80;1.45;;;16.60;59.70;;;;;;6256281;23;19992;-75
2023/03/21 03:36:46;;;;;;;1.95;1.30;;;16.60;59.70;;;;;;6256376;23;20000;-75
2023/03/21 03:39:14;;;;;;;1.38;0.60;;;16.60;59.70;;;;;;6256284;23;20042;-75
2023/03/21 03:41:49;;;;;;;1.73;1.00;;;16.60;59.70;;;;;;6256291;23;20423;-75
2023/03/21 03:44:15;;;;;;;2.58;1.00;;;16.60;59.70;;;;;;6256262;23;20012;-75
2023/03/21 03:46:50;;;;;;;0.93;0.73;;;16.60;59.70;;;;;;6256276;23;20510;-75
2023/03/21 03:49:26;;;;;;;1.42;0.90;;;16.70;59.70;;;;;;6256010;23;20000;-75
2023/03/21 03:51:51;;;;;;;1.33;0.85;;;16.60;59.60;;;;;;6256201;23;19996;-75
2023/03/21 03:54:36;;;;;;;2.33;0.82;;;16.70;59.70;;;;;;6245801;23;20011;-75
2023/03/21 03:57:03;;;;;;;1.98;0.77;;;16.60;59.60;;;;;;6256126;23;19992;-76
2023/03/21 03:59:29;;;;;;;1.40;0.90;;;16.60;60.20;;;;;;6256269;23;20359;-72
2023/03/21 04:01:55;;;;;;;2.05;0.95;;;16.60;59.60;;;;;;6255979;23;19993;-75
2023/03/21 04:04:21;;;;;;;1.92;0.95;;;16.60;59.60;;;;;;6256093;23;20320;-75
2023/03/21 04:06:50;;;;;;;1.92;1.00;;;16.60;59.60;;;;;;6246190;23;19992;-75
2023/03/21 04:09:17;;;;;;;2.22;1.00;;;16.60;59.60;;;;;;6255773;23;20020;-76
2023/03/21 04:11:43;;;;;;;1.90;1.27;;;16.60;60.20;;;;;;6256121;23;20067;-76
2023/03/21 04:14:08;;;;;;;2.58;0.90;;;16.60;59.60;;;;;;6251402;23;20054;-76
2023/03/21 04:16:34;;;;;;;4.13;1.30;;;16.60;59.70;;;;;;6255900;23;20000;-76
2023/03/21 04:19:00;;;;;;;2.25;0.90;;;16.60;59.60;;;;;;6255877;23;20031;-76
2023/03/21 04:21:27;;;;;;;1.30;1.00;;;16.70;59.70;;;;;;6255935;23;19996;-75
2023/03/21 04:23:53;;;;;;;1.13;0.88;;;16.60;59.60;;;;;;6255864;23;20331;-76
2023/03/21 04:26:21;;;;;;;0.80;0.70;;;16.60;59.60;;;;;;6255878;23;20004;-76
2023/03/21 04:28:47;;;;;;;1.88;1.00;;;16.60;59.70;;;;;;6255894;23;20451;-76
2023/03/21 04:31:13;;;;;;;1.30;1.20;;;16.60;59.60;;;;;;6255817;23;19996;-76
2023/03/21 04:33:39;;;;;;;1.35;1.00;;;16.60;59.60;;;;;;6245986;23;19996;-75
2023/03/21 04:36:08;;;;;;;2.83;1.08;;;16.60;59.60;;;;;;6255748;23;19996;-76
2023/03/21 04:38:34;;;;;;;1.50;1.00;;;16.60;59.60;;;;;;6255621;23;20000;-71
2023/03/21 04:41:00;;;;;;;3.67;1.02;;;16.60;59.70;;;;;;6255404;23;19997;-71
2023/03/21 04:43:27;;;;;;;1.80;0.80;;;16.60;60.40;;;;;;6255758;23;20415;-71
2023/03/21 04:45:53;;;;;;;1.58;0.73;;;16.60;60.30;;;;;;6255312;23;20008;-71
2023/03/21 04:48:23;;;;;;;1.75;0.80;;;16.60;59.80;;;;;;6245457;23;20026;-71
2023/03/21 04:50:50;;;;;;;1.17;0.68;;;16.60;59.70;;;;;;6245127;23;19997;-72
2023/03/21 04:53:16;;;;;;;2.58;1.20;;;16.60;59.80;;;;;;6244955;23;19992;-72
2023/03/21 04:55:42;;;;;;;2.20;1.02;;;16.60;59.70;;;;;;6255204;23;20330;-72
2023/03/21 04:58:08;;;;;;;2.03;0.90;;;16.60;59.70;;;;;;6255198;23;20000;-72
2023/03/21 05:00:37;;;;;;;3.05;1.10;;;16.60;59.80;;;;;;6255025;23;20003;-72
2023/03/21 05:03:07;;;;;;;1.08;0.80;;;16.60;59.70;;;;;;6254884;23;20012;-72
2023/03/21 05:05:35;;;;;;;2.83;1.15;;;16.70;59.80;;;;;;6245164;23;20374;-71
2023/03/21 05:08:01;;;;;;;2.10;1.30;;;16.70;59.80;;;;;;6255190;23;20390;-71
2023/03/21 05:10:26;;;;;;;1.83;0.98;;;16.70;59.90;;;;;;6255078;23;20031;-71
2023/03/21 05:12:52;;;;;;;2.15;1.00;;;16.70;59.80;;;;;;6255186;23;19996;-71
2023/03/21 05:15:17;;;;;;;1.17;0.80;;;16.70;59.90;;;;;;6255305;23;19996;-76
2023/03/21 05:17:43;;;;;;;1.25;0.70;;;16.70;59.80;;;;;;6255459;23;20074;-76
2023/03/21 05:20:10;;;;;;;3.38;1.20;;;16.70;59.90;;;;;;6255318;23;20000;-76
2023/03/21 05:22:39;;;;;;;2.00;1.30;;;16.70;59.80;;;;;;6245440;23;19993;-76
2023/03/21 05:25:07;;;;;;;2.40;1.05;;;16.70;59.90;;;;;;6255400;23;20308;-76
2023/03/21 05:27:34;;;;;;;4.13;1.00;;;16.70;60.00;;;;;;6245427;23;20030;-75
2023/03/21 05:30:05;;;;;;;1.30;0.95;;;16.70;60.10;;;;;;6245592;23;20083;-76
2023/03/21 05:32:31;;;;;;;2.92;1.35;;;16.70;60.10;;;;;;6255341;23;20431;-75
2023/03/21 05:35:03;;;;;;;1.40;1.30;;;16.70;60.30;;;;;;6245374;23;19993;-76
2023/03/21 05:37:29;;;;;;;1.95;1.77;;;16.70;60.20;;;;;;6244933;23;20020;-76
2023/03/21 05:39:55;;;;;;;2.53;2.20;;;16.70;60.40;;;;;;6245346;23;19996;-76
2023/03/21 05:42:21;;;;;;;3.25;2.95;;;16.70;60.50;;;;;;6255150;23;20459;-75
2023/03/21 05:44:47;;;;;;;4.80;4.40;;;16.70;60.60;;;;;;6255058;23;20008;-75
2023/03/21 05:47:14;;;;;;;6.32;5.85;;;16.70;60.60;;;;;;6255212;23;19997;-76
2023/03/21 05:49:39;;;;;;;9.55;8.77;;;16.70;61.40;;;;;;6255360;23;20000;-75
2023/03/21 05:52:05;;;;;;;12.15;11.15;;;16.70;60.80;;;;;;6255012;23;19996;-71
2023/03/21 05:54:31;;;;;;;17.42;16.02;;;16.70;60.80;;;;;;6254748;23;20020;-71
2023/03/21 05:56:56;;;;;;;22.63;20.73;;;16.70;60.80;;;;;;6254882;23;20007;-71
2023/03/21 05:59:22;;;;;;;26.35;24.05;;;16.70;61.00;;;;;;6254804;23;20019;-71
2023/03/21 06:01:48;;;;;;;32.63;29.85;;;16.70;61.00;;;;;;6244533;23;20023;-71
2023/03/21 06:04:14;;;;;;;38.88;35.63;;;16.70;61.10;;;;;;6254764;23;20110;-71
2023/03/21 06:06:40;;;;;;;43.25;39.55;;;16.70;61.80;;;;;;6254713;23;20006;-70
2023/03/21 06:09:06;;;;;;;45.20;41.40;;;16.70;61.20;;;;;;6254842;23;20039;-75
2023/03/21 06:11:35;;;;;;;48.80;44.63;;;16.70;61.80;;;;;;6245234;23;20000;-76
2023/03/21 06:14:00;;;;;;;52.13;47.63;;;16.80;61.20;;;;;;6244798;23;20470;-76
2023/03/21 06:16:27;;;;;;;54.88;49.88;;;16.70;61.30;;;;;;6255175;23;20000;-75
2023/03/21 06:18:53;;;;;;;55.17;50.55;;;16.70;61.20;;;;;;6254984;23;19992;-76
2023/03/21 06:21:20;;;;;;;55.70;50.72;;;16.80;61.30;;;;;;6244744;23;19996;-76
2023/03/21 06:23:47;;;;;;;51.22;46.63;;;16.70;61.20;;;;;;6245151;23;20319;-76
2023/03/21 06:26:13;;;;;;;53.95;49.35;;;16.70;61.20;;;;;;6245124;23;20103;-77
2023/03/21 06:28:39;;;;;;;52.08;47.67;;;16.80;61.30;;;;;;6255115;23;19997;-76
2023/03/21 06:31:05;;;;;;;50.67;46.38;;;16.80;61.30;;;;;;6254976;23;20122;-76
2023/03/21 06:33:31;;;;;;;49.30;45.20;;;16.80;61.20;;;;;;6246364;23;20071;-78
2023/03/21 06:35:58;;;;;;;43.47;39.78;;;16.80;61.20;;;;;;6247162;23;20411;-77
2023/03/21 06:38:24;;;;;;;43.08;39.45;;;16.80;61.10;;;;;;6257051;23;19996;-78
2023/03/21 06:40:50;;;;;;;42.15;38.50;;;16.80;61.00;;;;;;6256936;23;20355;-77
2023/03/21 06:43:17;;;;;;;40.80;37.40;;;16.80;61.00;;;;;;6256968;23;20007;-77
2023/03/21 06:45:43;;;;;;;40.28;36.88;;;16.80;61.00;;;;;;6256834;23;20012;-72
2023/03/21 06:48:08;;;;;;;35.58;32.55;;;16.80;61.00;;;;;;6256759;23;19992;-72
2023/03/21 06:50:34;;;;;;;37.25;33.90;;;16.80;60.90;;;;;;6256604;23;19996;-72
2023/03/21 06:53:00;;;;;;;35.22;32.03;;;16.80;60.80;;;;;;6256618;23;19992;-72
2023/03/21 06:55:27;;;;;;;33.90;31.00;;;16.80;60.80;;;;;;6256540;23;20004;-72
2023/03/21 06:57:54;;;;;;;33.05;30.25;;;16.80;60.80;;;;;;6256339;23;19999;-72
2023/03/21 07:00:21;;;;;;;31.95;29.25;;;16.80;60.90;;;;;;6256314;23;20003;-72
2023/03/21 07:02:47;;;;;;;28.63;26.10;;;16.80;60.70;;;;;;6256009;23;20530;-72
2023/03/21 07:05:13;;;;;;;30.00;27.50;;;16.80;60.80;;;;;;6246493;23;20004;-72
2023/03/21 07:07:39;;;;;;;29.00;26.42;;;16.80;60.70;;;;;;6256273;23;20363;-73
2023/03/21 07:10:06;;;;;;;25.95;23.65;;;16.80;60.60;;;;;;6256238;23;20000;-72
2023/03/21 07:12:34;;;;;;;24.98;22.65;;;16.80;60.70;;;;;;6256302;23;20080;-71
2023/03/21 07:15:00;;;;;;;25.77;23.40;;;16.80;60.60;;;;;;6246370;23;20384;-71
2023/03/21 07:17:26;;;;;;;25.40;23.15;;;16.80;60.60;;;;;;6256147;23;20087;-72
2023/03/21 07:19:51;;;;;;;23.17;21.20;;;16.80;60.50;;;;;;6229426;23;19996;-72
2023/03/21 07:22:17;;;;;;;23.33;21.35;;;16.80;60.40;;;;;;6256176;23;20470;-76
2023/03/21 07:24:43;;;;;;;22.20;20.33;;;16.80;61.10;;;;;;6256273;23;20343;-72
2023/03/21 07:27:09;;;;;;;21.52;19.67;;;16.80;60.40;;;;;;6246363;23;20335;-72
2023/03/21 07:29:35;;;;;;;20.60;18.77;;;16.80;60.40;;;;;;6246133;23;20506;-72
2023/03/21 07:32:01;;;;;;;19.90;18.10;;;16.80;61.00;;;;;;6246421;23;20371;-72
2023/03/21 07:34:31;;;;;;;18.58;16.98;;;16.80;60.40;;;;;;6246437;23;20012;-72
2023/03/21 07:36:58;;;;;;;17.55;16.05;;;16.80;60.70;;;;;;6246399;23;20000;-72
2023/03/21 07:39:24;;;;;;;16.20;14.80;;;16.80;60.30;;;;;;6246269;23;20076;-71
2023/03/21 07:41:50;;;;;;;17.65;15.95;;;16.80;60.30;;;;;;6246006;23;20062;-75
2023/03/21 07:44:17;;;;;;;16.15;14.57;;;16.80;60.20;;;;;;6245212;23;20003;-76
2023/03/21 07:46:43;;;;;;;14.82;13.40;;;16.80;60.30;;;;;;6245827;23;20498;-76
2023/03/21 07:49:09;;;;;;;14.60;13.27;;;16.80;60.20;;;;;;6245607;23;20447;-76
2023/03/21 07:51:36;;;;;;;14.07;12.75;;;16.80;60.20;;;;;;6246157;23;20323;-76
2023/03/21 07:54:02;;;;;;;13.38;11.98;;;16.80;60.20;;;;;;6245903;23;20316;-76
2023/03/21 07:56:28;;;;;;;12.38;11.27;;;16.80;60.10;;;;;;6246043;23;20063;-76
2023/03/21 07:58:54;;;;;;;12.82;11.73;;;16.80;60.10;;;;;;6245996;23;20003;-76
2023/03/21 08:01:20;;;;;;;11.85;10.65;;;16.80;69.40;;;;;;6245529;23;20016;-76
2023/03/21 08:03:46;;;;;;;10.90;9.85;;;16.80;60.10;;;;;;6255666;23;20015;-75
2023/03/21 08:06:14;;;;;;;9.93;9.02;;;16.80;60.00;;;;;;6245724;23;20008;-75
2023/03/21 08:08:40;;;;;;;9.80;8.90;;;16.80;60.10;;;;;;6245517;23;19996;-76
2023/03/21 08:11:06;;;;;;;9.85;8.20;;;16.80;61.00;;;;;;6245218;23;19997;-76
2023/03/21 08:13:33;;;;;;;8.77;8.07;;;16.80;60.40;;;;;;6245699;23;19999;-76
2023/03/21 08:15:58;;;;;;;8.52;7.72;;;16.70;60.50;;;;;;6255703;23;20053;-76
2023/03/21 08:18:24;;;;;;;7.50;6.80;;;16.80;60.50;;;;;;6245712;23;20020;-71
2023/03/21 08:20:54;;;;;;;6.82;6.22;;;16.80;60.50;;;;;;6255487;23;20000;-71
2023/03/21 08:23:21;;;;;;;6.63;6.03;;;16.80;60.50;;;;;;6245566;23;20006;-71
2023/03/21 08:25:53;;;;;;;6.43;5.85;;;16.80;60.50;;;;;;6245391;23;20004;-72
2023/03/21 08:28:20;;;;;;;6.35;5.75;;;16.80;60.60;;;;;;6255677;23;19992;-71
2023/03/21 08:30:47;;;;;;;7.03;5.72;;;16.80;60.50;;;;;;6245398;23;20000;-71
2023/03/21 08:33:13;;;;;;;5.88;5.30;;;16.80;60.40;;;;;;6245393;23;20000;-72
2023/03/21 08:35:39;;;;;;;5.18;4.68;;;16.80;60.40;;;;;;6245102;23;20411;-76
2023/03/21 08:38:05;;;;;;;5.82;4.82;;;16.80;60.40;;;;;;6245559;23;19999;-76
2023/03/21 08:40:32;;;;;;;4.22;3.83;;;16.80;60.50;;;;;;6244977;23;19997;-78
2023/03/21 08:42:58;;;;;;;4.35;3.95;;;16.80;60.40;;;;;;6245255;23;20047;-77
2023/03/21 08:45:25;;;;;;;6.65;4.47;;;16.80;60.30;;;;;;6245210;23;20328;-76
2023/03/21 08:47:52;;;;;;;4.65;3.90;;;16.80;60.40;;;;;;6245407;23;20356;-76
2023/03/21 08:50:21;;;;;;;3.83;3.50;;;16.90;60.30;;;;;;6245305;23;20031;-76
2023/03/21 08:52:47;;;;;;;4.25;3.55;;;16.90;60.20;;;;;;6245591;23;20002;-77
2023/03/21 08:55:15;;;;;;;5.20;3.17;;;16.80;60.30;;;;;;6244895;23;19996;-77
2023/03/21 08:57:42;;;;;;;4.32;3.15;;;16.90;60.30;;;;;;6245211;23;19993;-74
2023/03/21 09:00:13;;;;;;;5.15;2.88;;;16.80;60.20;;;;;;6245076;23;19996;-77
2023/03/21 09:02:44;;;;;;;3.80;2.60;;;16.90;60.30;;;;;;6244946;23;20008;-77
2023/03/21 09:05:10;;;;;;;3.15;2.60;;;16.90;60.30;;;;;;6245288;23;20091;-76
2023/03/21 09:07:38;;;;;;;4.55;2.40;;;16.90;60.30;;;;;;6245184;23;19992;-76
2023/03/21 09:10:05;;;;;;;3.83;2.45;;;16.90;60.20;;;;;;6245280;23;20099;-76
2023/03/21 09:12:33;;;;;;;2.67;2.40;;;16.90;60.10;;;;;;6244747;23;20470;-72
2023/03/21 09:15:01;;;;;;;5.35;2.40;;;16.90;60.10;;;;;;6255162;23;19996;-77
2023/03/21 09:17:31;;;;;;;3.97;2.17;;;16.90;60.20;;;;;;6254904;23;19992;-76
2023/03/21 09:19:58;;;;;;;;;;;16.90;60.20;;;;;;6255595;23;20071;-77
2023/03/21 09:22:24;;;;;;;4.25;2.10;;;16.90;60.20;;;;;;6255077;23;19907;-77
2023/03/21 09:24:51;;;;;;;2.72;1.52;;;16.90;60.20;;;;;;6245286;23;20312;-76
2023/03/21 09:27:16;;;;;;;5.32;2.10;;;16.90;60.20;;;;;;6255123;23;19992;-77
2023/03/21 09:29:43;;;;;;;3.15;1.90;;;16.90;60.10;;;;;;6255020;23;20000;-76
2023/03/21 09:32:11;;;;;;;2.88;1.95;;;16.90;60.10;;;;;;6255207;23;20457;-72
2023/03/21 09:34:39;;;;;;;3.65;2.08;;;16.90;60.10;;;;;;6254879;23;19999;-72
2023/03/21 09:37:14;;;;;;;3.38;1.98;;;16.90;60.10;;;;;;6245006;23;20053;-72
2023/03/21 09:39:41;;;;;;;2.78;1.58;;;16.90;60.10;;;;;;6254771;23;19992;-73
2023/03/21 09:42:22;;;;;;;3.38;1.80;;;16.90;60.20;;;;;;6256649;23;20335;-71
2023/03/21 09:44:57;;;;;;;;;;;17.00;60.10;;;;;;6245346;23;20438;-71
2023/03/21 09:47:31;;;;;;;4.40;1.90;;;16.90;60.10;;;;;;6244636;23;19900;-71
2023/03/21 09:50:02;;;;;;;2.65;1.83;;;16.90;60.10;;;;;;6254465;23;20370;-71
2023/03/21 09:52:50;;;;;;;4.57;1.80;;;17.00;60.20;;;;;;6254297;23;20027;-71
2023/03/21 09:55:29;;;;;;;2.00;1.52;;;17.00;60.20;;;;;;6244591;23;19993;-71
2023/03/21 09:58:35;;;;;;;2.13;1.63;;;17.00;60.40;;;;;;6217583;23;20004;-71
2023/03/21 10:01:40;;;;;;;2.83;1.52;;;17.00;60.30;;;;;;6254582;23;20057;-71
2023/03/21 10:04:06;;;;;;;3.58;1.60;;;17.00;60.20;;;;;;6243422;23;20016;-71
2023/03/21 10:06:38;;;;;;;4.13;2.00;;;17.00;60.30;;;;;;6244540;23;20008;-71
2023/03/21 10:09:13;;;;;;;4.05;1.98;;;17.00;60.40;;;;;;6256527;23;20074;-75
2023/03/21 10:12:06;;;;;;;3.33;1.50;;;17.00;60.40;;;;;;6246627;23;20011;-75
2023/03/21 10:14:39;;;;;;;4.47;1.52;;;17.00;60.30;;;;;;6256759;23;20004;-75
2023/03/21 10:17:10;;;;;;;3.50;1.35;;;17.00;60.40;;;;;;6256599;23;19992;-75
2023/03/21 10:19:36;;;;;;;1.98;1.42;;;17.00;60.30;;;;;;6256654;23;20022;-75
2023/03/21 10:22:01;;;;;;;2.63;1.35;;;17.00;60.30;;;;;;6256502;23;20430;-76
2023/03/21 10:24:30;;;;;;;3.05;1.20;;;17.00;60.40;;;;;;6256435;23;20004;-76
2023/03/21 10:26:56;;;;;;;2.75;1.48;;;17.00;60.40;;;;;;6256643;23;20001;-75
2023/03/21 10:29:45;;;;;;;1.70;1.20;;;17.00;61.00;;;;;;6256662;23;19996;-75
2023/03/21 10:32:14;;;;;;;2.97;1.63;;;17.00;60.40;;;;;;6245381;23;20004;-76
2023/03/21 10:34:54;;;;;;;3.37;1.80;;;17.00;60.50;;;;;;6246637;23;20019;-75
2023/03/21 10:37:22;;;;;;;3.13;1.70;;;17.00;60.50;;;;;;6246562;23;20020;-76
2023/03/21 10:39:51;;;;;;;4.57;1.33;;;17.00;60.40;;;;;;6246131;23;19993;-76
2023/03/21 10:42:23;;;;;;;3.88;1.70;;;17.00;60.40;;;;;;6246796;23;20363;-76
2023/03/21 10:44:51;;;;;;;2.90;1.50;;;17.00;60.60;;;;;;6256588;23;20040;-71
2023/03/21 10:47:32;;;;;;;3.67;1.60;;;17.00;60.50;;;;;;6256602;23;20003;-71
2023/03/21 10:50:06;;;;;;;2.60;1.45;;;17.00;60.50;;;;;;6256478;23;19992;-71
2023/03/21 10:52:34;;;;;;;3.22;1.38;;;17.00;60.50;;;;;;6256444;23;20465;-71
2023/03/21 10:55:15;;;;;;;2.50;1.20;;;17.00;60.50;;;;;;6256444;23;20043;-71
2023/03/21 10:57:41;;;;;;;2.85;1.50;;;17.00;60.60;;;;;;6256527;23;20007;-71
2023/03/21 11:00:16;;;;;;;8.35;1.77;;;17.00;60.60;;;;;;6256478;23;19996;-71
2023/03/21 11:02:42;;;;;;;2.65;1.40;;;17.00;60.60;;;;;;6256163;23;20008;-71
2023/03/21 11:05:21;;;;;;;2.67;1.58;;;17.00;60.60;;;;;;6256330;23;20005;-72
2023/03/21 11:07:54;;;;;;;4.40;1.52;;;17.10;60.70;;;;;;6256444;23;19992;-71
2023/03/21 11:10:32;;;;;;;1.80;1.17;;;17.10;60.60;;;;;;6256381;23;20003;-71
2023/03/21 11:13:04;;;;;;;3.50;1.40;;;17.10;60.60;;;;;;6256213;23;19999;-71
2023/03/21 11:15:31;;;;;;;2.65;1.60;;;17.10;60.60;;;;;;6256293;23;19996;-71
2023/03/21 11:17:58;;;;;;;2.42;1.10;;;17.10;60.60;;;;;;6256090;23;19996;-71
2023/03/21 11:20:24;;;;;;;3.40;1.30;;;17.10;60.60;;;;;;6256150;23;20301;-71
2023/03/21 11:22:54;;;;;;;4.53;1.95;;;17.10;60.60;;;;;;6256117;23;20006;-72
2023/03/21 11:25:36;;;;;;;3.63;1.63;;;17.10;60.70;;;;;;6255989;23;20015;-71
2023/03/21 11:28:18;;;;;;;5.03;2.00;;;17.10;60.70;;;;;;6256357;23;20000;-71
2023/03/21 11:30:58;;;;;;;5.90;2.20;;;17.10;60.70;;;;;;6256109;23;20308;-72
2023/03/21 11:33:35;;;;;;;4.57;1.73;;;17.10;60.70;;;;;;6245844;23;20534;-72
2023/03/21 11:36:03;;;;;;;4.10;1.55;;;17.10;60.70;;;;;;6246129;23;20042;-73
2023/03/21 11:38:38;;;;;;;5.10;2.08;;;17.10;60.80;;;;;;6219081;23;20000;-73
2023/03/21 11:41:05;;;;;;;4.50;1.90;;;17.10;60.70;;;;;;6246177;23;19997;-77
2023/03/21 11:43:35;;;;;;;4.95;1.80;;;17.10;60.70;;;;;;6245847;23;20000;-77
2023/03/21 11:46:12;;;;;;;3.28;1.50;;;17.10;60.60;;;;;;6245702;23;20093;-75
2023/03/21 11:48:49;;;;;;;3.67;1.88;;;17.20;61.30;;;;;;6246149;23;20001;-75
2023/03/21 11:51:39;;;;;;;3.33;1.80;;;17.20;60.60;;;;;;6245020;23;19992;-75
2023/03/21 11:54:24;;;;;;;3.38;2.00;;;17.20;60.60;;;;;;6245083;23;20069;-76
2023/03/21 11:57:03;;;;;;;3.25;1.75;;;17.20;60.40;;;;;;6245464;23;20004;-76
2023/03/21 11:59:45;;;;;;;5.88;2.05;;;17.30;60.40;;;;;;6245809;23;20003;-75
2023/03/21 12:02:54;;;;;;;2.97;1.60;;;17.30;60.30;;;;;;6244224;23;20016;-75
2023/03/21 12:05:51;;;;;;;4.45;1.42;;;17.30;60.20;;;;;;6173887;23;20418;-75
2023/03/21 12:08:39;;;;;;;4.22;1.90;;;17.30;60.80;;;;;;6255900;23;20020;-75
2023/03/21 12:11:36;;;;;;;4.28;1.60;;;17.40;60.20;;;;;;6168970;23;20378;-75
2023/03/21 12:14:18;;;;;;;3.53;1.70;;;17.40;60.10;;;;;;6199927;23;20011;-75
2023/03/21 12:16:52;;;;;;;4.63;1.98;;;17.40;59.90;;;;;;6255400;23;20439;-71
2023/03/21 12:19:44;;;;;;;3.97;1.30;;;17.40;59.90;;;;;;6255549;23;20335;-71
2023/03/21 12:22:31;;;;;;;3.13;2.00;;;17.50;60.00;;;;;;6245594;23;19996;-71
2023/03/21 12:25:07;;;;;;;3.22;1.80;;;17.50;59.90;;;;;;6255378;23;20014;-71
2023/03/21 12:27:52;;;;;;;2.75;1.70;;;17.50;59.90;;;;;;6245181;23;20427;-71
2023/03/21 12:30:32;;;;;;;3.55;1.67;;;17.50;60.00;;;;;;6255038;23;20038;-71
2023/03/21 12:33:24;;;;;;;3.05;1.50;;;17.50;60.00;;;;;;6245183;23;20083;-71
2023/03/21 12:36:07;;;;;;;4.53;1.60;;;17.40;60.00;;;;;;6245295;23;20359;-71
2023/03/21 12:38:45;;;;;;;2.17;1.30;;;17.40;60.00;;;;;;6245077;23;20000;-71
2023/03/21 12:41:26;;;;;;;4.10;1.75;;;17.40;60.10;;;;;;6255232;23;20000;-71
2023/03/21 12:44:02;;;;;;;6.47;1.90;;;17.40;60.10;;;;;;6245294;23;20217;-71
2023/03/21 12:46:56;;;;;;;3.78;1.85;;;17.40;60.10;;;;;;6245278;23;20008;-71
2023/03/21 12:49:40;;;;;;;3.80;1.83;;;17.40;60.20;;;;;;6255239;23;20019;-71
2023/03/21 12:52:18;;;;;;;3.17;1.70;;;17.40;60.20;;;;;;6255297;23;20439;-71
2023/03/21 12:54:49;;;;;;;1.95;1.30;;;17.40;60.20;;;;;;6255330;23;20332;-76
2023/03/21 12:57:39;;;;;;;3.38;1.70;;;17.40;60.30;;;;;;6244988;23;19997;-75
2023/03/21 13:00:37;;;;;;;2.88;1.60;;;17.40;60.30;;;;;;6245150;23;20046;-76
2023/03/21 13:03:12;;;;;;;5.30;1.83;;;17.40;60.30;;;;;;6243675;23;20027;-75